Detall de PIREP

Printer-friendly versionPDF version

[2011/06/09 07:37:00]
Flight IATA:CT3231
Pilot Number:011
Company ICAO:CAT
Aircraft Type:B738/F
PAX:160
Departing Airport: ELLX
Destination Airport: LEPA
Alternate Airport:LEBL
Online: VATSIM
Route:GTQ UN852 VERSO UL129 LUNIK
Flight Level:F290
No Slew and time accel
No pause
Crash detect
Detect pilot in Cockpit between each 30 and 45 minutes
07:37 Zero fuel Weight: 135990 Lbs, Fuel Weight: 18423 Lbs
07:37 VATSIM:ELLX 090650Z VRB02KT 9999 FEW009 BKN090 12/10 Q1015 NOSIG
07:37 VATSIM:LEPA 090700Z 00000KT 9999 FEW013 SCT021 21/17 Q1018 NOSIG
07:38 Parking Brakes off
07:47 Take-off
07:47 Take off Weight: 153658 Lbs
07:47 Wind: 238º @ 002 Knots Heading: 240º
07:47 POS N49º 37´ 43´´ E006º 13´ 00´´
07:47 Gear Up: 167 Knots
07:47 Flaps:5 at 167 Knots
07:48 Flaps:6 at 191 Knots
07:49 Flaps:5 at 192 Knots
07:49 Flaps:4 at 193 Knots
07:49 Flaps:3 at 195 Knots
07:49 Flaps:2 at 201 Knots
07:49 Flaps:1 at 234 Knots
07:49 Flaps:0 at 234 Knots
08:02 Wind:186º@011 Knots Heading: 183º Ground Speed: 433 Knots Altitude 27926 ft
08:02 TOC
08:02 Fuel Weight: 14652 Lb
08:17 Wind:235º@013 Knots Heading: 221º Ground Speed: 448 Knots Altitude 29107 ft
08:32 Wind:333º@026 Knots Heading: 195º Ground Speed: 484 Knots Altitude 29058 ft
08:47 Wind:315º@054 Knots Heading: 221º Ground Speed: 470 Knots Altitude 29041 ft
09:02 Wind:315º@005 Knots Heading: 189º Ground Speed: 466 Knots Altitude 29130 ft
09:03 TOD
09:03 Fuel Weight: 8415 Lb
09:17 Wind:204º@010 Knots Heading: 221º Ground Speed: 304 Knots Altitude 4632 ft
09:20 Flaps:1 at 220 Knots
09:20 Flaps:2 at 219 Knots
09:21 Flaps:3 at 218 Knots
09:21 Flaps:4 at 217 Knots
09:22 Flaps:5 at 205 Knots
09:22 Flaps:6 at 193 Knots
09:22 Gear Down: 192 Knots
09:23 Flaps:5 at 163 Knots
09:23 Flaps:6 at 163 Knots
09:23 Flaps:7 at 162 Knots
09:23 Flaps:8 at 159 Knots
09:27 TouchDown:Rate -299 ft/min Speed: 112 Knots
09:27 VATSIM:LEPA 090900Z 21005KT 170V250 9999 SCT023 23/17 Q1018 NOSIG
09:27 Land
09:27 Wind:212º@005 Knots
09:27 Heading: 238º
09:27 Flight Duration: 01:40
09:27 Landing Weight: 142893 Lbs
09:27 POS N39º 33´ 27´´ E002º 43´ 58´´
09:30 Parking brakes on
09:30 Block to Block Duration: 01:52
09:30 Final Fuel: 6653 Lbls
09:30 Spent Fuel: 11770 Lbls
09:30 Flight Length: 573 NM
09:30 TOD Land Length: 120 NM

Exportar CSV

Powered by Drupal - Modified by Danger4k